Time;durP1;ratioP1;P1;durP2;ratioP2;P2;SDS_P1;SDS_P2;PMS_P1;PMS_P2;Temp;Humidity;BMP_temperature;BMP_pressure;BME280_temperature;BME280_humidity;BME280_pressure;Samples;Min_cycle;Max_cycle;Signal;HPM_P1;HPM_P2
2022/09/26 00:01:21;;;;;;;;;;;;;;;10.94;89.79;98371.73;1697242;84;20123;-49
2022/09/26 00:03:49;;;;;;;;;;;;;;;10.94;88.86;98368.62;1697225;84;20432;-50
2022/09/26 00:06:16;;;;;;;;;;;;;;;10.92;89.72;98369.69;1696841;84;20115;-48
2022/09/26 00:08:43;;;;;;;;;;;;;;;10.92;90.35;98371.01;1697212;84;20119;-50
2022/09/26 00:11:12;;;;;;;;;;;;;;;10.90;90.54;98372.91;1697243;83;20162;-50
2022/09/26 00:13:40;;;;;;;;;;;;;;;10.92;90.02;98364.43;1697179;85;20119;-47
2022/09/26 00:16:06;;;;;;;;;;;;;;;10.91;90.06;98353.08;1697191;85;20119;-48
2022/09/26 00:18:32;;;;;;;;;;;;;;;10.92;89.62;98346.02;1697178;83;20111;-46
2022/09/26 00:21:09;;;;;;;;;;;;;;;10.90;89.76;98348.75;1697278;83;20110;-48
2022/09/26 00:23:35;;;;;;;;;;;;;;;10.88;90.22;98348.52;1697270;83;20115;-48
2022/09/26 00:26:01;;;;;;;;;;;;;;;10.88;90.20;98349.83;1697112;83;20119;-46
2022/09/26 00:28:27;;;;;;;;;;;;;;;10.88;90.37;98351.14;1697310;83;20126;-46
2022/09/26 00:30:53;;;;;;;;;;;;;;;10.86;90.00;98342.04;1697278;84;20140;-45
2022/09/26 00:33:19;;;;;;;;;;;;;;;10.84;90.28;98343.08;1697211;83;20107;-49
2022/09/26 00:35:53;;;;;;;;;;;;;;;10.84;90.25;98343.94;1697215;83;20119;-50
2022/09/26 00:38:19;;;;;;;;;;;;;;;10.81;90.64;98340.21;1696340;85;20119;-47
2022/09/26 00:40:45;;;;;;;;;;;;;;;10.81;90.76;98340.21;1697155;83;20143;-46
2022/09/26 00:43:35;;;;;;;;;;;;;;;10.82;90.09;98335.78;1697227;84;20127;-50
2022/09/26 00:46:07;;;;;;;;;;;;;;;10.81;90.87;98332.80;1697315;83;20115;-45
2022/09/26 00:48:34;;;;;;;;;;;;;;;10.81;90.58;98331.00;1682040;83;20126;-48
2022/09/26 00:50:59;;;;;;;;;;;;;;;10.80;90.31;98328.48;1697197;83;20452;-47
2022/09/26 00:53:29;;;;;;;;;;;;;;;10.79;90.62;98325.47;1697123;85;20122;-46
2022/09/26 00:55:57;;;;;;;;;;;;;;;10.76;90.73;98331.31;1697020;83;20123;-47
2022/09/26 00:58:30;;;;;;;;;;;;;;;10.75;91.16;98327.03;1696324;84;20169;-48
2022/09/26 01:00:56;;;;;;;;;;;;;;;10.74;90.81;98327.96;1697161;85;20119;-48
2022/09/26 01:03:23;;;;;;;;;;;;;;;10.74;90.74;98327.13;1697146;83;20107;-48
2022/09/26 01:05:49;;;;;;;;;;;;;;;10.71;90.93;98322.94;1697163;83;20115;-47
2022/09/26 01:08:17;;;;;;;;;;;;;;;10.68;90.91;98323.16;1697387;83;20099;-47
2022/09/26 01:10:44;;;;;;;;;;;;;;;10.68;90.62;98323.16;1697200;85;20134;-47
2022/09/26 01:13:10;;;;;;;;;;;;;;;10.66;91.09;98325.05;1696486;83;20159;-47
2022/09/26 01:15:37;;;;;;;;;;;;;;;10.65;91.12;98322.05;1696171;83;20135;-51
2022/09/26 01:18:06;;;;;;;;;;;;;;;10.63;91.50;98325.75;1696136;85;20158;-48
2022/09/26 01:20:35;;;;;;;;;;;;;;;10.61;90.90;98318.45;1676295;85;20163;-47
2022/09/26 01:23:39;;;;;;;;;;;;;;;10.58;91.39;98316.86;1696937;84;20115;-49
2022/09/26 01:26:25;;;;;;;;;;;;;;;10.58;90.82;98318.17;1697272;85;20118;-49
2022/09/26 01:29:09;;;;;;;;;;;;;;;10.55;91.06;98315.30;1697177;83;20115;-49
2022/09/26 01:31:38;;;;;;;;;;;;;;;10.54;91.35;98307.03;1697206;83;20412;-48
2022/09/26 01:34:16;;;;;;;;;;;;;;;10.51;91.67;98312.98;1696693;84;20542;-45
2022/09/26 01:36:48;;;;;;;;;;;;;;;10.51;91.96;98315.16;1697296;85;20103;-50
2022/09/26 01:39:35;;;;;;;;;;;;;;;10.49;92.16;98307.83;1697232;85;20111;-45
2022/09/26 01:42:36;;;;;;;;;;;;;;;10.51;91.72;98308.59;1697346;85;20140;-47
2022/09/26 01:45:08;;;;;;;;;;;;;;;10.51;91.80;98303.78;1697313;84;20138;-46
2022/09/26 01:47:38;;;;;;;;;;;;;;;10.49;91.68;98306.99;1697219;83;20122;-46
2022/09/26 01:50:25;;;;;;;;;;;;;;;10.50;91.58;98306.89;1694186;85;20111;-47
2022/09/26 01:52:54;;;;;;;;;;;;;;;10.47;92.27;98304.47;1697164;85;20416;-45
2022/09/26 01:55:33;;;;;;;;;;;;;;;10.44;92.51;98302.08;1696531;84;20111;-49
2022/09/26 01:58:13;;;;;;;;;;;;;;;10.44;92.45;98298.59;1696968;84;20123;-49
2022/09/26 02:00:37;;;;;;;;;;;;;;;10.43;91.92;98300.39;1695409;85;20123;-51
2022/09/26 02:03:04;;;;;;;;;;;;;;;10.40;92.75;98297.13;1697232;84;20107;-45
2022/09/26 02:05:42;;;;;;;;;;;;;;;10.40;91.85;98301.08;1697161;85;20423;-50
2022/09/26 02:08:17;;;;;;;;;;;;;;;10.41;93.02;98293.09;1697104;85;20424;-50
2022/09/26 02:10:45;;;;;;;;;;;;;;;10.42;93.36;98290.80;1697149;85;20115;-46
2022/09/26 02:13:18;;;;;;;;;;;;;;;10.42;92.72;98286.03;1697135;83;20420;-47
2022/09/26 02:15:46;;;;;;;;;;;;;;;10.41;92.40;98285.69;1697136;85;20135;-47
2022/09/26 02:18:32;;;;;;;;;;;;;;;10.39;92.76;98281.84;1697216;83;20122;-48
2022/09/26 02:21:01;;;;;;;;;;;;;;;10.38;92.52;98285.41;1697242;84;20119;-45
2022/09/26 02:23:27;;;;;;;;;;;;;;;10.38;92.73;98285.41;1695607;83;20131;-51
2022/09/26 02:25:52;;;;;;;;;;;;;;;10.38;92.57;98276.21;1697198;85;20107;-50
2022/09/26 02:28:18;;;;;;;;;;;;;;;10.35;92.71;98279.91;1697250;85;20139;-51
2022/09/26 02:30:46;;;;;;;;;;;;;;;10.34;92.42;98275.59;1697233;85;20417;-48
2022/09/26 02:33:11;;;;;;;;;;;;;;;10.32;92.50;98273.55;1697298;83;20427;-47
2022/09/26 02:38:23;;;;;;;;;;;;;;;10.34;91.90;98274.76;1697315;83;20381;-47
2022/09/26 02:41:09;;;;;;;;;;;;;;;10.30;92.74;98272.78;1696226;84;20108;-45
2022/09/26 02:43:39;;;;;;;;;;;;;;;10.31;92.13;98273.16;1697145;84;20155;-46
2022/09/26 02:46:25;;;;;;;;;;;;;;;10.31;91.99;98273.16;1696694;84;20547;-48
2022/09/26 02:48:54;;;;;;;;;;;;;;;10.29;93.36;98267.15;1697164;83;20433;-48
2022/09/26 02:51:48;;;;;;;;;;;;;;;10.29;93.90;98265.84;1697207;85;20432;-49
2022/09/26 02:54:26;;;;;;;;;;;;;;;10.32;93.55;98264.34;1697085;83;20119;-48
2022/09/26 02:56:55;;;;;;;;;;;;;;;10.33;93.37;98260.79;1672544;83;20119;-48
2022/09/26 02:59:28;;;;;;;;;;;;;;;10.35;93.99;98264.59;1696033;84;20140;-46
2022/09/26 03:02:04;;;;;;;;;;;;;;;10.35;94.23;98261.52;1682492;84;20111;-49
2022/09/26 03:04:39;;;;;;;;;;;;;;;10.37;94.36;98262.23;1697405;83;20428;-51
2022/09/26 03:07:08;;;;;;;;;;;;;;;10.41;93.18;98267.29;1697127;84;20119;-46
2022/09/26 03:09:33;;;;;;;;;;;;;;;10.43;93.15;98261.45;1697349;85;20118;-46
2022/09/26 03:12:01;;;;;;;;;;;;;;;10.45;93.73;98257.75;1697364;85;20178;-51
2022/09/26 03:14:28;;;;;;;;;;;;;;;10.44;93.67;98255.22;1697412;83;20119;-49
2022/09/26 03:16:54;;;;;;;;;;;;;;;10.43;93.34;98260.96;1697540;85;20115;-46
2022/09/26 03:19:35;;;;;;;;;;;;;;;10.43;93.41;98258.33;1697351;85;20114;-47
2022/09/26 03:22:01;;;;;;;;;;;;;;;10.43;93.16;98253.08;1697361;83;20119;-48
2022/09/26 03:24:27;;;;;;;;;;;;;;;10.41;92.89;98245.78;1697366;83;20530;-46
2022/09/26 03:26:54;;;;;;;;;;;;;;;10.40;92.94;98241.95;1697250;85;20103;-46
2022/09/26 03:29:20;;;;;;;;;;;;;;;10.36;92.88;98239.52;1697255;83;20134;-45
2022/09/26 03:31:48;;;;;;;;;;;;;;;10.38;92.33;98241.56;1697215;84;20103;-51
2022/09/26 03:34:14;;;;;;;;;;;;;;;10.33;92.30;98235.82;1697052;83;20111;-50
2022/09/26 03:36:39;;;;;;;;;;;;;;;10.28;92.59;98230.02;1697346;83;20375;-47
2022/09/26 03:39:05;;;;;;;;;;;;;;;10.26;92.47;98235.86;1697309;83;20118;-47
2022/09/26 03:41:31;;;;;;;;;;;;;;;10.24;92.60;98235.13;1697440;84;20404;-50
2022/09/26 03:43:57;;;;;;;;;;;;;;;10.21;92.85;98235.82;1697207;85;20107;-49
2022/09/26 03:46:23;;;;;;;;;;;;;;;10.21;92.62;98230.56;1697203;84;20115;-49
2022/09/26 03:48:49;;;;;;;;;;;;;;;10.20;92.98;98227.08;1697565;85;20119;-50
2022/09/26 03:51:16;;;;;;;;;;;;;;;10.23;92.66;98230.81;1697374;85;20111;-51
2022/09/26 03:53:43;;;;;;;;;;;;;;;10.20;92.64;98234.95;1697316;85;20157;-45
2022/09/26 03:56:11;;;;;;;;;;;;;;;10.19;93.07;98231.98;1703393;82;20139;-48
2022/09/26 03:58:37;;;;;;;;;;;;;;;10.20;92.78;98227.08;1704736;83;20111;-50
2022/09/26 04:01:12;;;;;;;;;;;;;;;10.20;92.60;98217.88;1704801;82;20118;-49
2022/09/26 04:03:38;;;;;;;;;;;;;;;10.19;92.41;98216.22;1704075;82;20139;-52
2022/09/26 04:06:07;;;;;;;;;;;;;;;10.17;92.20;98208.92;1704908;84;20114;-48
2022/09/26 04:08:33;;;;;;;;;;;;;;;10.16;92.65;98213.80;1704837;84;20115;-47
2022/09/26 04:11:01;;;;;;;;;;;;;;;10.17;92.76;98210.23;1704934;84;20425;-46
2022/09/26 04:13:27;;;;;;;;;;;;;;;10.16;93.07;98208.06;1704779;82;20111;-48
2022/09/26 04:15:57;;;;;;;;;;;;;;;10.18;93.51;98196.14;1704834;84;20106;-50
2022/09/26 04:18:23;;;;;;;;;;;;;;;10.18;93.72;98192.20;1703942;84;20139;-47
2022/09/26 04:20:49;;;;;;;;;;;;;;;10.21;93.49;98195.09;1704819;84;20107;-48
2022/09/26 04:23:14;;;;;;;;;;;;;;;10.27;92.72;98191.53;1704842;84;20137;-52
2022/09/26 04:25:40;;;;;;;;;;;;;;;10.30;93.18;98194.44;1704728;84;20119;-49
2022/09/26 04:28:07;;;;;;;;;;;;;;;10.32;92.83;98197.34;1704865;84;20424;-50
2022/09/26 04:30:32;;;;;;;;;;;;;;;10.36;92.74;98196.16;1704884;83;20131;-46
2022/09/26 04:32:58;;;;;;;;;;;;;;;10.37;92.66;98192.59;1704764;84;20139;-52
2022/09/26 04:35:24;;;;;;;;;;;;;;;10.37;92.70;98193.91;1704789;84;20119;-49
2022/09/26 04:37:49;;;;;;;;;;;;;;;10.40;92.52;98189.38;1704798;84;20440;-50
2022/09/26 04:40:15;;;;;;;;;;;;;;;10.41;92.62;98195.02;1704850;84;20119;-48
2022/09/26 04:42:41;;;;;;;;;;;;;;;10.41;92.66;98201.58;1704707;84;20118;-48
2022/09/26 04:45:07;;;;;;;;;;;;;;;10.40;92.82;98187.58;1704779;84;20118;-50
2022/09/26 04:47:33;;;;;;;;;;;;;;;10.45;92.50;98189.41;1704834;82;20111;-50
2022/09/26 04:49:58;;;;;;;;;;;;;;;10.48;92.27;98198.39;1704807;82;20118;-46
2022/09/26 04:52:25;;;;;;;;;;;;;;;10.47;92.02;98193.25;1704820;83;20118;-48
2022/09/26 04:54:51;;;;;;;;;;;;;;;10.49;92.05;98196.59;1708531;81;20116;-48
2022/09/26 04:57:16;;;;;;;;;;;;;;;10.54;91.54;98190.53;1725440;82;20467;-46
2022/09/26 04:59:42;;;;;;;;;;;;;;;10.54;91.80;98200.56;1725415;83;20109;-50
2022/09/26 05:02:07;;;;;;;;;;;;;;;10.58;91.54;98199.04;1725286;83;20125;-46
2022/09/26 05:04:33;;;;;;;;;;;;;;;10.53;91.58;98201.98;1725382;82;20101;-48
2022/09/26 05:06:59;;;;;;;;;;;;;;;10.53;90.98;98196.73;1725479;82;20109;-49
2022/09/26 05:09:25;;;;;;;;;;;;;;;10.45;90.97;98195.98;1725435;82;20418;-47
2022/09/26 05:11:51;;;;;;;;;;;;;;;10.51;90.33;98197.32;1725449;83;20110;-49
2022/09/26 05:14:16;;;;;;;;;;;;;;;10.50;90.13;98193.03;1725409;83;20117;-47
2022/09/26 05:16:42;;;;;;;;;;;;;;;10.49;90.60;98188.23;1725405;83;20116;-49
2022/09/26 05:19:07;;;;;;;;;;;;;;;10.52;90.36;98193.76;1725443;83;20709;-50
2022/09/26 05:21:33;;;;;;;;;;;;;;;10.50;90.58;98188.61;1725317;83;20369;-50
2022/09/26 05:26:45;;;;;;;;;;;;;;;10.55;90.64;98185.63;1725586;83;20105;-48
2022/09/26 05:29:11;;;;;;;;;;;;;;;10.55;91.40;98181.69;1725340;83;20109;-47
2022/09/26 05:31:38;;;;;;;;;;;;;;;10.55;91.34;98185.63;1725303;82;20121;-45
2022/09/26 05:34:11;;;;;;;;;;;;;;;10.58;91.31;98177.52;1725312;83;20369;-48
2022/09/26 05:36:38;;;;;;;;;;;;;;;10.59;91.45;98179.22;1725327;83;20109;-47
2022/09/26 05:40:55;;;;;;;;;;;;;;;10.64;91.70;98178.41;1725454;83;20114;-48
2022/09/26 05:41:32;;;;;;;;;;;;;;;10.71;91.54;98180.09;1725703;82;20442;-48
2022/09/26 05:43:58;;;;;;;;;;;;;;;10.75;92.00;98177.14;1725366;83;20129;-50
2022/09/26 05:46:25;;;;;;;;;;;;;;;10.81;91.41;98180.27;1725356;83;20105;-51
2022/09/26 05:48:51;;;;;;;;;;;;;;;10.84;91.45;98180.88;1725405;83;20413;-45
2022/09/26 05:51:19;;;;;;;;;;;;;;;10.85;91.42;98177.28;1725338;83;20437;-50
2022/09/26 05:53:46;;;;;;;;;;;;;;;10.88;90.97;98177.06;1725385;83;20113;-46
2022/09/26 05:56:13;;;;;;;;;;;;;;;10.90;91.45;98175.64;1712100;83;20110;-50
2022/09/26 05:58:39;;;;;;;;;;;;;;;10.95;91.32;98183.55;1704648;84;20127;-48
2022/09/26 06:01:08;;;;;;;;;;;;;;;11.00;91.32;98183.19;1704757;84;20118;-47
2022/09/26 06:03:34;;;;;;;;;;;;;;;11.04;90.86;98182.48;1704159;84;20448;-48
2022/09/26 06:06:09;;;;;;;;;;;;;;;11.07;90.35;98184.41;1704747;84;20400;-50
2022/09/26 06:08:36;;;;;;;;;;;;;;;11.05;90.43;98178.42;1704780;83;20116;-49
2022/09/26 06:11:11;;;;;;;;;;;;;;;11.10;90.13;98177.61;1704883;84;20115;-47
2022/09/26 06:13:37;;;;;;;;;;;;;;;11.14;90.14;98176.91;1704855;83;20139;-50
2022/09/26 06:16:05;;;;;;;;;;;;;;;11.13;90.21;98176.07;1704799;82;20113;-46
2022/09/26 06:18:35;;;;;;;;;;;;;;;11.19;89.88;98179.17;1704784;82;20147;-49
2022/09/26 06:21:04;;;;;;;;;;;;;;;11.24;89.58;98179.21;1704771;84;20428;-48
2022/09/26 06:23:32;;;;;;;;;;;;;;;11.28;90.02;98183.28;1704720;82;20114;-50
2022/09/26 06:25:58;;;;;;;;;;;;;;;11.34;89.60;98175.39;1704721;84;20503;-47
2022/09/26 06:28:25;;;;;;;;;;;;;;;11.36;89.35;98181.38;1704734;84;20114;-48
2022/09/26 06:30:51;;;;;;;;;;;;;;;11.40;88.96;98186.75;1704636;83;20134;-48
2022/09/26 06:33:16;;;;;;;;;;;;;;;11.44;88.48;98182.95;1705025;84;20122;-49
2022/09/26 06:35:42;;;;;;;;;;;;;;;11.48;88.54;98179.61;1704929;84;20416;-47
2022/09/26 06:38:08;;;;;;;;;;;;;;;11.51;88.47;98183.30;1704805;82;20107;-48
2022/09/26 06:40:33;;;;;;;;;;;;;;;11.53;88.40;98178.75;1704408;83;20162;-48
2022/09/26 06:42:59;;;;;;;;;;;;;;;11.53;88.26;98177.44;1703872;83;20153;-48
2022/09/26 06:45:25;;;;;;;;;;;;;;;11.55;87.99;98181.27;1704732;83;20111;-46
2022/09/26 06:47:52;;;;;;;;;;;;;;;11.60;87.93;98183.08;1704696;82;20106;-50
2022/09/26 06:50:17;;;;;;;;;;;;;;;11.60;87.17;98179.13;1704767;84;20143;-51
2022/09/26 06:52:43;;;;;;;;;;;;;;;11.65;87.43;98176.50;1704792;82;20427;-46
2022/09/26 06:55:10;;;;;;;;;;;;;;;11.65;87.42;98177.81;1703936;83;20400;-46
2022/09/26 06:57:41;;;;;;;;;;;;;;;11.67;87.72;98183.80;1696275;85;20167;-51
2022/09/26 07:00:10;;;;;;;;;;;;;;;11.68;88.08;98174.95;1697137;83;20111;-45
2022/09/26 07:02:36;;;;;;;;;;;;;;;11.66;87.83;98175.55;1696520;83;20103;-48
2022/09/26 07:05:04;;;;;;;;;;;;;;;11.70;88.28;98178.30;1697233;85;20140;-51
2022/09/26 07:07:31;;;;;;;;;;;;;;;11.73;88.41;98178.53;1696577;85;20135;-49
2022/09/26 07:09:56;;;;;;;;;;;;;;;11.71;88.27;98169.91;1697248;85;20131;-47
2022/09/26 07:12:23;;;;;;;;;;;;;;;11.77;88.15;98173.41;1697259;83;20110;-50
2022/09/26 07:14:50;;;;;;;;;;;;;;;11.84;88.09;98171.11;1696230;83;20435;-49
2022/09/26 07:17:16;;;;;;;;;;;;;;;11.89;87.79;98178.17;1695475;85;20491;-45
2022/09/26 07:19:43;;;;;;;;;;;;;;;11.89;87.81;98180.32;1695741;84;20162;-46
2022/09/26 07:22:09;;;;;;;;;;;;;;;11.95;87.77;98183.47;1695909;84;20142;-50
2022/09/26 07:24:35;;;;;;;;;;;;;;;12.03;88.35;98191.62;1726261;82;20137;-48
2022/09/26 07:27:01;;;;;;;;;;;;;;;12.07;87.61;98182.51;1726537;82;20136;-47
2022/09/26 07:29:28;;;;;;;;;;;;;;;12.13;87.33;98180.69;1726852;83;20132;-50
2022/09/26 07:31:54;;;;;;;;;;;;;;;12.19;87.18;98188.13;1726531;83;20128;-49
2022/09/26 07:34:23;;;;;;;;;;;;;;;12.23;86.87;98186.09;1727688;82;20507;-51
2022/09/26 07:36:47;;;;;;;;;;;;;;;12.25;87.04;98188.95;1728066;81;20136;-51
2022/09/26 07:39:13;;;;;;;;;;;;;;;12.19;86.69;98180.71;1727687;82;20116;-45
2022/09/26 07:41:39;;;;;;;;;;;;;;;12.17;86.88;98179.52;1727492;83;20108;-49
2022/09/26 07:44:05;;;;;;;;;;;;;;;12.26;87.43;98177.45;1726609;83;20100;-50
2022/09/26 07:51:59;;;;;;;;;;;;;;;12.60;86.61;98177.34;1727593;82;20414;-48
2022/09/26 07:54:25;;;;;;;;;;;;;;;12.74;86.83;98168.81;1727665;83;20157;-51
2022/09/26 07:56:50;;;;;;;;;;;;;;;12.91;86.83;98170.05;1725758;82;20116;-51
2022/09/26 07:59:16;;;;;;;;;;;;;;;13.02;86.13;98169.53;1725097;82;20145;-48
2022/09/26 08:01:41;;;;;;;;;;;;;;;13.17;85.61;98171.82;1725111;82;20117;-48
2022/09/26 08:04:10;;;;;;;;;;;;;;;13.29;85.28;98173.44;1725177;82;20136;-49
2022/09/26 08:06:35;;;;;;;;;;;;;;;13.38;84.76;98171.86;1725059;83;20106;-46
2022/09/26 08:09:01;;;;;;;;;;;;;;;13.46;84.76;98165.92;1726839;82;20114;-50
2022/09/26 08:11:27;;;;;;;;;;;;;;;13.52;84.02;98166.25;1757367;82;20137;-48
2022/09/26 08:13:52;;;;;;;;;;;;;;;13.60;83.79;98162.94;1757488;82;20450;-49
2022/09/26 08:16:19;;;;;;;;;;;;;;;13.64;83.71;98153.78;1757447;80;20452;-48
2022/09/26 08:18:45;;;;;;;;;;;;;;;13.67;83.39;98157.98;1757421;81;20137;-46
2022/09/26 08:21:11;;;;;;;;;;;;;;;13.70;83.42;98152.41;1757416;81;20438;-49
2022/09/26 08:23:36;;;;;;;;;;;;;;;13.73;83.28;98152.98;1749540;81;20179;-49
2022/09/26 08:26:04;;;;;;;;;;;;;;;13.77;83.70;98147.80;1739349;82;20449;-50
2022/09/26 08:28:29;;;;;;;;;;;;;;;13.87;83.54;98150.97;1739297;82;20163;-50
2022/09/26 08:31:01;;;;;;;;;;;;;;;13.95;83.69;98149.80;1739314;82;20131;-51
2022/09/26 08:33:27;;;;;;;;;;;;;;;14.05;83.76;98148.52;1738668;82;20175;-48
2022/09/26 08:35:53;;;;;;;;;;;;;;;14.09;82.51;98144.14;1738638;82;20102;-49
2022/09/26 08:38:20;;;;;;;;;;;;;;;14.16;82.42;98150.56;1739240;82;20129;-50
2022/09/26 08:40:58;;;;;;;;;;;;;;;14.26;82.86;98144.45;1739266;82;20124;-48
2022/09/26 08:43:40;;;;;;;;;;;;;;;14.32;82.08;98147.89;1739047;82;20112;-48
2022/09/26 08:49:16;;;;;;;;;;;;;;;14.46;82.05;98139.56;1769672;81;20137;-49
2022/09/26 08:51:43;;;;;;;;;;;;;;;14.57;81.89;98137.25;1761667;81;20466;-47
2022/09/26 08:54:17;;;;;;;;;;;;;;;14.67;81.69;98137.30;1757769;82;20107;-49
2022/09/26 08:56:49;;;;;;;;;;;;;;;14.76;80.38;98138.61;1756254;80;20107;-47
2022/09/26 08:59:36;;;;;;;;;;;;;;;14.94;80.11;98136.10;1754898;80;20438;-48
2022/09/26 09:02:06;;;;;;;;;;;;;;;15.06;79.39;98139.45;1754740;82;20180;-47
2022/09/26 09:04:35;;;;;;;;;;;;;;;15.26;79.50;98130.98;1745336;80;20162;-48
2022/09/26 09:07:07;;;;;;;;;;;;;;;15.47;80.46;98120.67;1779694;80;20114;-47
2022/09/26 09:09:33;;;;;;;;;;;;;;;15.63;78.51;98122.70;1779371;80;20117;-54
2022/09/26 09:12:08;;;;;;;;;;;;;;;15.77;77.29;98123.59;1782352;80;20456;-45
2022/09/26 09:14:45;;;;;;;;;;;;;;;15.90;77.22;98120.10;1782176;80;20112;-48
2022/09/26 09:17:24;;;;;;;;;;;;;;;16.04;75.48;98119.25;1776879;80;20132;-45
2022/09/26 09:20:12;;;;;;;;;;;;;;;16.18;76.10;98115.27;1782198;80;20519;-48
2022/09/26 09:23:08;;;;;;;;;;;;;;;16.14;75.13;98111.26;1782704;80;20105;-48
2022/09/26 09:25:49;;;;;;;;;;;;;;;16.09;76.15;98111.69;1701905;84;20117;-50
2022/09/26 09:28:51;;;;;;;;;;;;;;;16.05;76.44;98115.62;1701787;84;20426;-48
2022/09/26 09:31:19;;;;;;;;;;;;;;;15.97;75.87;98108.42;1701873;84;20430;-47
2022/09/26 09:35:01;;;;;;;29.10;19.07;;;;;;;16.04;76.40;98109.47;1819725;77;23044;-52
2022/09/26 09:37:33;;;;;;;39.15;19.67;;;;;;;15.99;76.20;98117.06;1804488;78;21014;-44
2022/09/26 09:39:59;;;;;;;25.65;17.10;;;;;;;16.04;76.52;98111.30;1792382;79;20979;-46
2022/09/26 09:42:33;;;;;;;29.57;17.00;;;;;;;16.09;75.92;98115.67;1789260;79;21010;-45
2022/09/26 09:45:07;;;;;;;27.37;18.50;;;;;;;16.10;75.07;98122.16;1785662;79;21038;-47
2022/09/26 09:47:37;;;;;;;29.55;18.60;;;;;;;16.33;76.02;98115.09;1782324;79;21467;-42
2022/09/26 09:50:23;;;;;;;32.65;18.40;;;;;;;16.48;75.81;98114.92;1759966;78;21010;-40
2022/09/26 09:53:26;;;;;;;31.37;17.15;;;;;;;16.63;75.33;98119.71;1782882;79;21010;-40
2022/09/26 09:56:09;;;;;;;26.52;16.10;;;;;;;16.75;73.99;98112.33;1800864;78;21058;-42
2022/09/26 09:58:49;;;;;;;27.17;16.97;;;;;;;16.80;73.43;98114.86;1756860;80;21554;-40
2022/09/26 10:01:26;;;;;;;27.10;16.17;;;;;;;16.88;73.82;98110.99;1779334;79;21398;-42
2022/09/26 10:04:03;;;;;;;29.25;16.62;;;;;;;16.98;73.88;98115.38;1769876;80;21015;-40
2022/09/26 10:06:27;;;;;;;24.77;15.75;;;;;;;17.06;73.76;98107.45;1742162;80;21551;-39
2022/09/26 10:08:52;;;;;;;26.37;16.40;;;;;;;17.12;73.09;98112.16;1750497;80;21071;-41
2022/09/26 10:11:40;;;;;;;27.60;16.75;;;;;;;17.13;72.72;98108.50;1746171;80;21069;-41
2022/09/26 10:14:13;;;;;;;23.27;17.70;;;;;;;17.18;72.98;98114.19;1755554;80;21062;-40
2022/09/26 10:17:12;;;;;;;28.38;17.30;;;;;;;17.23;72.83;98110.58;1777182;80;21082;-39
2022/09/26 10:19:43;;;;;;;22.25;16.90;;;;;;;17.27;72.08;98105.28;1755559;80;21491;-40
2022/09/26 10:22:23;;;;;;;26.65;16.27;;;;;;;17.34;72.19;98106.83;1760406;80;21049;-41
2022/09/26 10:24:46;;;;;;;25.85;17.55;;;;;;;17.38;72.31;98105.52;1756359;80;21002;-41
2022/09/26 10:27:21;;;;;;;21.82;16.73;;;;;;;17.38;72.02;98106.02;1754600;80;21003;-42
2022/09/26 10:29:46;;;;;;;22.77;16.48;;;;;;;17.38;72.38;98108.17;1758092;80;21010;-41
2022/09/26 10:32:12;;;;;;;20.85;14.98;;;;;;;17.38;72.10;98112.66;1750076;80;21004;-39
2022/09/26 10:34:39;;;;;;;23.12;15.53;;;;;;;17.34;71.69;98102.84;1781980;79;20996;-39
2022/09/26 10:37:24;;;;;;;20.57;15.00;;;;;;;17.32;71.25;98107.95;1809735;78;21048;-40
2022/09/26 10:42:40;;;;;;;17.02;11.48;;;;;;;17.33;71.39;98101.16;1793893;78;21103;-40
2022/09/26 10:45:16;;;;;;;14.45;10.05;;;;;;;17.35;70.90;98103.67;1813489;79;21551;-42
2022/09/26 10:47:46;;;;;;;16.43;9.90;;;;;;;17.30;70.00;98097.52;1795520;78;21008;-43
2022/09/26 10:50:22;;;;;;;15.98;10.23;;;;;;;17.22;68.42;98100.10;1799080;79;21034;-40
2022/09/26 10:53:01;;;;;;;14.25;10.28;;;;;;;17.17;68.87;98097.08;1793005;78;20987;-40
2022/09/26 10:55:31;;;;;;;16.02;11.25;;;;;;;17.08;69.05;98098.83;1793089;79;20970;-40
2022/09/26 10:58:04;;;;;;;21.70;11.60;;;;;;;17.00;68.59;98100.12;1806576;78;21067;-40
2022/09/26 11:00:37;;;;;;;16.32;10.32;;;;;;;16.88;69.19;98096.39;1809517;79;21000;-41
2022/09/26 11:03:06;;;;;;;14.25;11.70;;;;;;;16.87;69.60;98100.02;1810461;78;21055;-41
2022/09/26 11:05:57;;;;;;;18.42;12.00;;;;;;;16.93;70.02;98099.07;1801507;79;21011;-40
2022/09/26 11:08:36;;;;;;;19.12;11.40;;;;;;;17.00;70.43;98089.50;1806263;78;21010;-40
2022/09/26 11:11:10;;;;;;;19.80;12.25;;;;;;;17.05;69.90;98095.19;1798207;78;21001;-39
2022/09/26 11:14:02;;;;;;;24.40;12.15;;;;;;;17.08;69.77;98090.39;1813309;78;20999;-40
2022/09/26 11:16:26;;;;;;;16.80;11.30;;;;;;;17.09;69.87;98089.89;1804556;78;20993;-41
2022/09/26 11:19:15;;;;;;;15.73;10.80;;;;;;;17.14;70.28;98087.61;1794123;79;21508;-40
2022/09/26 11:22:13;;;;;;;15.25;9.63;;;;;;;17.13;69.85;98087.25;1814275;78;21030;-41
2022/09/26 11:26:40;;;;;;;18.10;9.13;;;;;;;17.16;69.66;98082.97;1800899;79;23035;-38
2022/09/26 11:29:19;;;;;;;13.10;9.20;;;;;;;17.11;68.70;98083.92;1761266;81;21314;-41
2022/09/26 11:31:46;;;;;;;14.95;9.90;;;;;;;17.04;68.17;98089.02;1761277;80;21011;-42
2022/09/26 11:34:20;;;;;;;15.10;9.10;;;;;;;17.04;68.60;98084.20;1760950;81;21035;-42
2022/09/26 11:37:14;;;;;;;10.40;8.33;;;;;;;16.97;67.45;98084.48;1760852;81;21850;-39
2022/09/26 11:40:08;;;;;;;15.75;9.18;;;;;;;16.87;66.95;98081.94;1761126;81;21027;-45
2022/09/26 11:43:08;;;;;;;15.65;9.53;;;;;;;16.88;67.92;98085.77;1761011;81;21030;-40
2022/09/26 11:46:14;;;;;;;17.25;9.85;;;;;;;16.86;68.26;98078.45;1761189;80;21044;-39
2022/09/26 11:49:03;;;;;;;14.53;10.05;;;;;;;16.86;68.70;98082.44;1761369;80;21011;-39
2022/09/26 11:52:07;;;;;;;16.67;8.28;;;;;;;16.84;68.58;98076.92;1761236;81;21524;-39
2022/09/26 11:54:47;;;;;;;15.45;9.60;;;;;;;16.82;67.98;98066.42;1760875;81;22082;-39
2022/09/26 11:57:52;;;;;;;15.48;9.78;;;;;;;16.90;68.61;98065.70;1760952;81;21015;-39
2022/09/26 12:00:27;;;;;;;15.93;10.35;;;;;;;16.88;68.09;98061.88;1760292;80;21027;-40
2022/09/26 12:03:35;;;;;;;15.72;10.03;;;;;;;16.98;68.40;98058.28;1761361;81;21030;-40
2022/09/26 12:06:33;;;;;;;16.73;9.83;;;;;;;17.08;68.94;98062.98;1760798;81;21041;-39
2022/09/26 12:09:32;;;;;;;20.62;10.05;;;;;;;17.20;68.83;98059.08;1761225;80;21488;-39
2022/09/26 12:12:09;;;;;;;17.12;10.40;;;;;;;17.31;68.53;98053.98;1760047;80;21055;-40
2022/09/26 12:15:13;;;;;;;16.10;9.95;;;;;;;17.44;68.31;98061.53;1736250;81;21472;-39
2022/09/26 12:18:00;;;;;;;20.88;10.72;;;;;;;17.73;68.38;98059.83;1761309;81;21053;-39
2022/09/26 12:20:43;;;;;;;17.02;10.43;;;;;;;18.23;67.29;98056.85;1761191;80;21014;-40
2022/09/26 12:23:17;;;;;;;13.62;9.75;;;;;;;18.62;67.03;98052.21;1760890;81;21468;-40
2022/09/26 12:26:12;;;;;;;18.98;13.25;;;;;;;19.12;65.89;98043.73;1752300;80;21000;-40
2022/09/26 12:29:04;;;;;;;24.27;12.10;;;;;;;19.56;64.96;98041.41;1748167;81;21986;-41
2022/09/26 12:32:13;;;;;;;15.20;10.70;;;;;;;19.94;62.13;98041.59;1741966;81;20972;-40
2022/09/26 12:34:59;;;;;;;18.07;10.43;;;;;;;20.33;62.27;98038.00;1748000;81;21063;-39
2022/09/26 12:37:48;;;;;;;16.80;9.98;;;;;;;20.88;61.25;98037.92;1747133;81;21525;-39
2022/09/26 12:40:47;;;;;;;14.90;9.53;;;;;;;21.11;56.25;98037.06;1746677;81;21588;-40
2022/09/26 12:43:46;;;;;;;16.90;9.53;;;;;;;21.94;58.27;98037.75;1747342;81;20987;-39
2022/09/26 12:46:50;;;;;;;12.90;9.03;;;;;;;21.61;57.98;98035.50;1747332;81;21423;-38
2022/09/26 12:49:57;;;;;;;13.43;8.30;;;;;;;21.23;58.23;98031.59;1746519;81;21027;-39
2022/09/26 12:52:40;;;;;;;;;;;;;;;20.76;57.60;98030.05;1749929;81;20968;-39
2022/09/26 12:55:37;;;;;;;12.13;9.03;;;;;;;20.05;55.15;98024.36;1653595;86;20114;-39
2022/09/26 12:58:41;;;;;;;13.78;8.80;;;;;;;19.98;58.77;98018.58;1653761;87;21003;-39
2022/09/26 13:01:31;;;;;;;9.10;7.42;;;;;;;19.80;59.27;98018.84;1653104;87;21083;-40
2022/09/26 13:04:25;;;;;;;9.58;7.15;;;;;;;19.49;58.09;98017.77;1653143;87;21043;-40
2022/09/26 13:07:11;;;;;;;17.40;7.50;;;;;;;19.23;57.81;98014.52;1653979;87;21084;-39
2022/09/26 13:09:45;;;;;;;10.47;7.30;;;;;;;19.19;58.32;98015.36;1654514;86;21023;-40
2022/09/26 13:12:42;;;;;;;11.35;7.05;;;;;;;19.02;57.58;98015.91;1640812;87;21010;-39